Time;durP1;ratioP1;P1;durP2;ratioP2;P2;SDS_P1;SDS_P2;PMS_P1;PMS_P2;Temp;Humidity;BMP_temperature;BMP_pressure;BME280_temperature;BME280_humidity;BME280_pressure;Samples;Min_cycle;Max_cycle;Signal;HPM_P1;HPM_P2
2023/02/03 00:01:55;;;;;;;8.60;5.00;;;;;;;0.10;87.81;100421.55;103368;1254;107104;-75
2023/02/03 00:04:22;;;;;;;7.80;5.00;;;;;;;0.09;87.44;100420.52;103227;1257;138205;-73
2023/02/03 00:06:49;;;;;;;7.30;4.20;;;;;;;0.08;87.26;100419.65;102638;1257;1003574;-74
2023/02/03 00:09:17;;;;;;;7.00;4.40;;;;;;;0.05;87.17;100411.23;103194;1254;138951;-74
2023/02/03 00:11:44;;;;;;;9.10;4.40;;;;;;;0.03;86.94;100410.36;103299;1253;110990;-74
2023/02/03 00:14:10;;;;;;;5.60;3.90;;;;;;;-0.01;86.72;100406.88;103260;1258;107381;-74
2023/02/03 00:16:37;;;;;;;6.60;4.00;;;;;;;-0.06;86.65;100404.75;103216;1257;138384;-74
2023/02/03 00:19:04;;;;;;;8.90;4.20;;;;;;;-0.10;86.60;100415.48;103245;1260;109358;-74
2023/02/03 00:21:32;;;;;;;6.90;4.30;;;;;;;-0.14;86.51;100418.00;103176;1260;138460;-73
2023/02/03 00:23:59;;;;;;;9.20;4.80;;;;;;;-0.16;86.51;100419.84;103353;1258;110359;-73
2023/02/03 00:26:27;;;;;;;6.90;4.00;;;;;;;-0.19;86.38;100421.84;103327;1254;107695;-73
2023/02/03 00:28:54;;;;;;;7.10;3.80;;;;;;;-0.23;86.34;100425.03;103276;1263;138385;-73
2023/02/03 00:31:24;;;;;;;6.40;4.00;;;;;;;-0.26;86.33;100422.76;103437;1254;107314;-73
2023/02/03 00:33:55;;;;;;;7.30;4.10;;;;;;;-0.30;86.29;100426.13;103201;1257;138416;-72
2023/02/03 00:36:23;;;;;;;7.40;4.00;;;;;;;-0.34;86.32;100432.06;103212;1255;110911;-74
2023/02/03 00:38:50;;;;;;;7.30;4.10;;;;;;;-0.38;86.21;100433.51;103214;1257;107644;-74
2023/02/03 00:41:17;;;;;;;6.30;4.10;;;;;;;-0.41;86.27;100437.57;103209;1258;138288;-74
2023/02/03 00:43:44;;;;;;;6.40;4.10;;;;;;;-0.44;86.24;100437.02;101866;1255;1002912;-74
2023/02/03 00:46:13;;;;;;;8.30;4.30;;;;;;;-0.48;86.18;100442.08;103209;1256;139095;-74
2023/02/03 00:48:40;;;;;;;6.10;4.00;;;;;;;-0.53;86.12;100441.33;103314;1257;111653;-74
2023/02/03 00:51:07;;;;;;;6.70;4.00;;;;;;;-0.56;86.19;100450.48;103216;1254;138901;-74
2023/02/03 00:53:34;;;;;;;6.50;3.50;;;;;;;-0.59;86.11;100455.56;103350;1257;97834;-73
2023/02/03 00:56:01;;;;;;;6.40;3.90;;;;;;;-0.63;86.18;100458.08;103315;1256;108235;-73
2023/02/03 00:58:28;;;;;;;6.10;3.70;;;;;;;-0.67;86.13;100454.60;101690;1254;1003107;-73
2023/02/03 01:00:56;;;;;;;6.60;3.80;;;;;;;-0.70;85.98;100457.11;103312;1257;111224;-74
2023/02/03 01:03:24;;;;;;;8.90;4.20;;;;;;;-0.75;86.16;100455.14;103189;1257;138471;-74
2023/02/03 01:05:51;;;;;;;6.40;3.50;;;;;;;-0.76;86.22;100455.45;103354;1254;98320;-74
2023/02/03 01:08:18;;;;;;;6.90;3.70;;;;;;;-0.77;86.30;100460.38;103279;1257;108168;-74
2023/02/03 01:10:45;;;;;;;7.30;3.80;;;;;;;-0.78;86.41;100457.30;103221;1257;138444;-74
2023/02/03 01:13:12;;;;;;;7.90;3.70;;;;;;;-0.76;86.47;100459.89;103331;1257;110604;-75
2023/02/03 01:15:45;;;;;;;8.60;3.50;;;;;;;-0.74;86.57;100458.90;103183;1253;138463;-74
2023/02/03 01:18:11;;;;;;;6.70;3.60;;;;;;;-0.73;86.58;100458.58;103348;1254;97781;-72
2023/02/03 01:20:38;;;;;;;5.90;3.70;;;;;;;-0.73;86.50;100458.94;102563;1253;1003043;-73
2023/02/03 01:23:05;;;;;;;7.20;3.80;;;;;;;-0.67;86.55;100466.73;103109;1257;138535;-73
2023/02/03 01:25:34;;;;;;;7.70;3.40;;;;;;;-0.63;86.61;100462.52;103254;1254;110697;-73
2023/02/03 01:28:01;;;;;;;7.80;3.90;;;;;;;-0.58;86.59;100461.05;103141;1254;138645;-73
2023/02/03 01:30:28;;;;;;;6.90;3.60;;;;;;;-0.53;86.51;100460.29;103257;1254;97831;-74
2023/02/03 01:32:55;;;;;;;6.10;3.20;;;;;;;-0.49;86.36;100461.04;103181;1255;107709;-74
2023/02/03 01:35:22;;;;;;;6.80;3.50;;;;;;;-0.46;86.23;100454.41;103114;1257;138338;-74
2023/02/03 01:37:49;;;;;;;6.90;3.90;;;;;;;-0.43;86.37;100450.70;103250;1258;110767;-74
2023/02/03 01:40:16;;;;;;;4.50;3.20;;;;;;;-0.40;86.23;100457.75;103095;1254;139899;-74
2023/02/03 01:42:43;;;;;;;6.20;3.40;;;;;;;-0.37;86.09;100459.17;103246;1254;97884;-75
2023/02/03 01:45:13;;;;;;;5.00;3.20;;;;;;;-0.34;86.08;100459.40;102323;1255;1003072;-73
2023/02/03 01:47:46;;;;;;;5.50;3.00;;;;;;;-0.30;86.12;100450.23;103274;1254;97793;-75
2023/02/03 01:50:17;;;;;;;5.40;3.40;;;;;;;-0.28;85.69;100441.36;103275;1254;111326;-74
2023/02/03 01:52:49;;;;;;;7.50;3.30;;;;;;;-0.27;85.34;100440.52;103028;1254;138428;-75
2023/02/03 01:55:20;;;;;;;8.80;3.60;;;;;;;-0.27;84.95;100430.27;103197;1256;98345;-74
2023/02/03 01:57:53;;;;;;;6.30;3.30;;;;;;;-0.29;84.52;100430.75;103037;1257;142453;-74
2023/02/03 02:00:21;;;;;;;6.60;2.80;;;;;;;-0.29;84.21;100436.23;103663;1255;97801;-75
2023/02/03 02:02:49;;;;;;;8.60;3.40;;;;;;;-0.29;84.09;100443.58;103152;1258;111516;-74
2023/02/03 02:05:25;;;;;;;4.90;2.70;;;;;;;-0.28;83.86;100446.15;103071;1259;140089;-74
2023/02/03 02:07:53;;;;;;;6.90;3.00;;;;;;;-0.25;83.82;100441.57;103734;1254;99861;-74
2023/02/03 02:10:19;;;;;;;5.70;3.00;;;;;;;-0.25;83.14;100442.26;103164;1256;140010;-74
2023/02/03 02:12:47;;;;;;;6.20;3.00;;;;;;;-0.26;82.93;100434.73;103356;1257;97788;-73
2023/02/03 02:15:14;;;;;;;6.40;2.60;;;;;;;-0.25;82.73;100431.66;103164;1254;138453;-73
2023/02/03 02:18:00;;;;;;;6.30;2.60;;;;;;;-0.24;82.67;100432.70;101777;1257;1003407;-74
2023/02/03 02:20:52;;;;;;;4.40;2.60;;;;;;;-0.22;82.80;100427.43;103349;1254;97678;-74
2023/02/03 02:23:43;;;;;;;5.50;2.30;;;;;;;-0.19;82.72;100422.85;103024;1254;139897;-73
2023/02/03 02:26:37;;;;;;;4.80;2.40;;;;;;;-0.19;82.37;100416.70;103191;1254;97859;-74
2023/02/03 02:29:28;;;;;;;4.10;2.50;;;;;;;-0.21;82.08;100412.91;103114;1254;138339;-74
2023/02/03 02:32:00;;;;;;;5.50;2.80;;;;;;;-0.23;82.08;100416.32;103160;1257;107739;-74
2023/02/03 02:34:39;;;;;;;4.10;2.50;;;;;;;-0.23;82.28;100420.08;103064;1259;138273;-74
2023/02/03 02:37:14;;;;;;;4.90;2.60;;;;;;;-0.25;82.15;100420.55;102381;1254;1016106;-73
2023/02/03 02:39:53;;;;;;;6.20;2.60;;;;;;;-0.26;82.11;100413.54;103129;1261;138740;-74
2023/02/03 02:42:26;;;;;;;4.10;2.50;;;;;;;-0.30;82.18;100409.04;103278;1254;110746;-74
2023/02/03 02:44:58;;;;;;;5.80;3.00;;;;;;;-0.35;82.19;100405.73;102419;1257;1003506;-74
2023/02/03 02:47:26;;;;;;;4.30;2.40;;;;;;;-0.39;82.45;100404.97;103276;1254;97784;-74
2023/02/03 02:49:58;;;;;;;5.70;3.00;;;;;;;-0.43;82.36;100407.98;103263;1260;106928;-74
2023/02/03 02:52:29;;;;;;;5.90;2.80;;;;;;;-0.47;82.39;100408.27;103156;1254;138679;-73
2023/02/03 02:55:01;;;;;;;3.80;3.10;;;;;;;-0.52;82.43;100414.02;102522;1254;1003686;-74
2023/02/03 02:57:29;;;;;;;6.90;3.10;;;;;;;-0.57;82.68;100414.26;103072;1257;138608;-73
2023/02/03 02:59:58;;;;;;;5.00;2.70;;;;;;;-0.61;82.74;100414.05;103226;1254;97797;-74
2023/02/03 03:02:33;;;;;;;6.00;3.10;;;;;;;-0.66;82.84;100408.52;103188;1254;107164;-74
2023/02/03 03:05:03;;;;;;;6.50;3.60;;;;;;;-0.71;82.88;100406.57;103167;1254;138273;-74
2023/02/03 03:07:36;;;;;;;6.70;3.20;;;;;;;-0.74;82.90;100411.10;103222;1254;111325;-74
2023/02/03 03:10:07;;;;;;;7.40;3.40;;;;;;;-0.78;82.84;100417.35;103117;1254;138300;-74
2023/02/03 03:12:39;;;;;;;5.80;3.50;;;;;;;-0.82;83.01;100412.68;103227;1257;97825;-72
2023/02/03 03:15:11;;;;;;;6.50;3.70;;;;;;;-0.85;83.13;100414.68;102325;1257;1002574;-74
2023/02/03 03:17:42;;;;;;;7.40;3.50;;;;;;;-0.89;83.10;100412.41;102384;1254;1003283;-74
2023/02/03 03:20:15;;;;;;;6.90;3.90;;;;;;;-0.93;83.04;100411.98;103254;1257;110923;-74
2023/02/03 03:22:45;;;;;;;7.10;4.00;;;;;;;-0.97;83.20;100418.39;102848;1254;1002996;-73
2023/02/03 03:25:16;;;;;;;7.80;4.60;;;;;;;-1.01;83.25;100416.46;103242;1254;97656;-73
2023/02/03 03:27:48;;;;;;;8.50;4.90;;;;;;;-1.05;83.27;100415.02;103274;1254;138468;-74
2023/02/03 03:30:20;;;;;;;6.60;4.60;;;;;;;-1.09;83.34;100415.11;103254;1257;98313;-74
2023/02/03 03:32:48;;;;;;;9.50;5.00;;;;;;;-1.11;83.35;100411.66;103253;1254;110548;-73
2023/02/03 03:35:15;;;;;;;8.00;5.00;;;;;;;-1.15;83.48;100405.63;102330;1254;1003242;-74
2023/02/03 03:37:49;;;;;;;10.40;5.30;;;;;;;-1.19;83.19;100402.32;103219;1254;97931;-74
2023/02/03 03:40:21;;;;;;;10.10;5.70;;;;;;;-1.22;83.46;100398.52;103172;1254;139064;-73
2023/02/03 03:42:54;;;;;;;9.30;5.50;;;;;;;-1.26;83.37;100395.23;103330;1253;97848;-74
2023/02/03 03:45:28;;;;;;;8.80;5.70;;;;;;;-1.28;83.55;100393.80;103267;1254;139380;-74
2023/02/03 03:47:59;;;;;;;10.20;5.70;;;;;;;-1.31;83.43;100390.67;103475;1255;107902;-72
2023/02/03 03:50:32;;;;;;;8.20;6.00;;;;;;;-1.33;83.63;100397.80;103355;1256;98493;-73
2023/02/03 03:53:02;;;;;;;8.40;5.90;;;;;;;-1.36;83.86;100396.05;103402;1253;138230;-73
2023/02/03 03:55:31;;;;;;;10.90;6.10;;;;;;;-1.36;83.65;100395.88;103283;1254;97723;-73
2023/02/03 03:58:04;;;;;;;9.90;5.80;;;;;;;-1.36;83.82;100398.10;103173;1254;138384;-73
2023/02/03 04:00:34;;;;;;;8.60;5.40;;;;;;;-1.37;83.98;100398.07;103254;1257;107407;-73
2023/02/03 04:03:05;;;;;;;8.60;5.50;;;;;;;-1.39;84.09;100398.20;103297;1257;97959;-73
2023/02/03 04:05:34;;;;;;;11.00;5.30;;;;;;;-1.40;83.98;100398.87;103352;1253;106166;-73
2023/02/03 04:08:02;;;;;;;8.10;5.20;;;;;;;-1.41;84.00;100402.61;103377;1253;97905;-73
2023/02/03 04:10:34;;;;;;;8.00;5.20;;;;;;;-1.41;83.84;100399.54;103199;1253;138155;-73
2023/02/03 04:13:02;;;;;;;8.30;5.10;;;;;;;-1.41;83.97;100398.34;102525;1253;1003069;-73
2023/02/03 04:15:30;;;;;;;7.20;5.20;;;;;;;-1.43;83.90;100399.86;103171;1256;138871;-73
2023/02/03 04:17:56;;;;;;;10.20;5.70;;;;;;;-1.43;84.13;100400.35;103342;1256;108001;-73
2023/02/03 04:20:24;;;;;;;10.80;5.50;;;;;;;-1.43;84.04;100403.08;103386;1257;97777;-73
2023/02/03 04:22:52;;;;;;;9.40;5.10;;;;;;;-1.42;84.16;100400.72;103166;1256;138503;-73
2023/02/03 04:25:19;;;;;;;8.80;5.30;;;;;;;-1.42;84.00;100401.05;103290;1257;107612;-73
2023/02/03 04:27:46;;;;;;;10.10;5.20;;;;;;;-1.44;84.16;100399.66;103190;1254;138546;-73
2023/02/03 04:30:17;;;;;;;7.80;4.80;;;;;;;-1.43;84.42;100398.81;102503;1254;1002499;-74
2023/02/03 04:32:44;;;;;;;9.90;5.30;;;;;;;-1.43;84.14;100399.31;103678;1253;97829;-73
2023/02/03 04:35:11;;;;;;;9.20;5.50;;;;;;;-1.44;84.32;100398.96;103159;1253;138354;-73
2023/02/03 04:37:38;;;;;;;8.30;5.50;;;;;;;-1.43;84.42;100402.05;101750;1254;1003212;-74
2023/02/03 04:40:06;;;;;;;9.90;5.70;;;;;;;-1.44;84.18;100403.89;103242;1254;138814;-73
2023/02/03 04:42:33;;;;;;;10.00;6.30;;;;;;;-1.47;84.05;100401.96;103406;1252;107113;-73
2023/02/03 04:45:00;;;;;;;10.60;6.80;;;;;;;-1.50;84.31;100401.23;103311;1254;97831;-73
2023/02/03 04:47:27;;;;;;;12.00;7.30;;;;;;;-1.51;84.40;100401.55;103176;1256;138366;-74
2023/02/03 04:49:54;;;;;;;14.60;7.70;;;;;;;-1.53;84.35;100395.72;103429;1253;107384;-74
2023/02/03 04:52:20;;;;;;;10.70;6.80;;;;;;;-1.53;84.52;100395.03;103291;1252;138491;-74
2023/02/03 04:54:47;;;;;;;12.70;7.50;;;;;;;-1.53;84.59;100393.01;103477;1252;108055;-73
2023/02/03 04:57:14;;;;;;;9.70;7.00;;;;;;;-1.53;84.66;100394.53;102456;1254;1003118;-73
2023/02/03 04:59:41;;;;;;;13.10;7.90;;;;;;;-1.54;84.48;100393.33;103370;1253;111184;-74
2023/02/03 05:02:08;;;;;;;13.80;7.80;;;;;;;-1.55;84.60;100384.45;103225;1254;107839;-74
2023/02/03 05:04:35;;;;;;;12.10;7.30;;;;;;;-1.55;84.77;100377.79;103219;1257;138740;-73
2023/02/03 05:07:02;;;;;;;10.00;6.90;;;;;;;-1.56;84.55;100378.80;102512;1254;1003256;-74
2023/02/03 05:09:29;;;;;;;10.70;7.30;;;;;;;-1.56;84.60;100376.23;103220;1253;139700;-74
2023/02/03 05:11:56;;;;;;;10.50;7.00;;;;;;;-1.56;84.88;100376.07;103288;1254;110466;-73
2023/02/03 05:14:23;;;;;;;14.80;7.20;;;;;;;-1.56;84.78;100374.02;103284;1253;108348;-73
2023/02/03 05:16:50;;;;;;;14.10;6.90;;;;;;;-1.54;84.96;100370.98;102459;1253;1003253;-73
2023/02/03 05:19:17;;;;;;;12.80;6.50;;;;;;;-1.51;84.90;100365.73;103271;1257;107916;-74
2023/02/03 05:21:44;;;;;;;10.50;6.50;;;;;;;-1.52;84.84;100363.00;103220;1256;138664;-73
2023/02/03 05:24:11;;;;;;;10.80;6.60;;;;;;;-1.54;84.80;100360.58;103335;1256;110997;-73
2023/02/03 05:26:38;;;;;;;10.90;6.30;;;;;;;-1.56;84.97;100363.45;103312;1257;107598;-73
2023/02/03 05:29:05;;;;;;;14.40;7.20;;;;;;;-1.56;85.27;100359.70;103192;1253;138577;-73
2023/02/03 05:31:32;;;;;;;11.10;6.60;;;;;;;-1.56;85.34;100356.64;103316;1254;107152;-73
2023/02/03 05:34:00;;;;;;;13.00;6.70;;;;;;;-1.55;85.36;100355.62;102498;1257;1002986;-74
2023/02/03 05:36:26;;;;;;;11.90;7.20;;;;;;;-1.56;85.34;100359.03;103357;1253;110659;-73
2023/02/03 05:38:53;;;;;;;11.50;6.20;;;;;;;-1.56;85.39;100355.27;103305;1257;108780;-73
2023/02/03 05:44:04;;;;;;;12.50;6.60;;;;;;;-1.56;85.50;100353.56;103257;1254;107447;-74
2023/02/03 05:46:32;;;;;;;13.20;6.70;;;;;;;-1.56;85.65;100353.05;102464;1253;1002713;-73
2023/02/03 05:48:58;;;;;;;10.50;5.90;;;;;;;-1.57;85.63;100351.34;103324;1257;112472;-73
2023/02/03 05:51:25;;;;;;;11.20;6.10;;;;;;;-1.57;85.53;100349.10;103166;1253;139796;-74
2023/02/03 05:53:53;;;;;;;13.70;6.60;;;;;;;-1.58;85.71;100346.70;102561;1256;1002749;-73
2023/02/03 05:56:19;;;;;;;12.30;6.40;;;;;;;-1.59;85.94;100344.81;102467;1253;1003804;-73
2023/02/03 05:58:46;;;;;;;9.30;6.10;;;;;;;-1.61;85.73;100346.30;103202;1257;138677;-73
2023/02/03 06:01:13;;;;;;;11.30;6.50;;;;;;;-1.60;86.05;100345.65;103242;1253;110573;-74
2023/02/03 06:03:40;;;;;;;13.90;6.20;;;;;;;-1.60;85.98;100343.09;103046;1258;138640;-75
2023/02/03 06:06:10;;;;;;;11.10;6.20;;;;;;;-1.58;86.07;100350.45;103300;1254;97669;-71
2023/02/03 06:08:37;;;;;;;10.50;6.70;;;;;;;-1.56;86.00;100346.06;102549;1254;1002975;-71
2023/02/03 06:11:04;;;;;;;11.70;6.40;;;;;;;-1.54;86.31;100345.75;103179;1253;138657;-77
2023/02/03 06:13:30;;;;;;;10.60;5.70;;;;;;;-1.51;86.07;100344.95;102515;1257;1002717;-74
2023/02/03 06:15:57;;;;;;;11.70;6.60;;;;;;;-1.47;86.29;100338.18;103203;1253;138656;-71
2023/02/03 06:18:24;;;;;;;10.90;5.80;;;;;;;-1.44;86.10;100333.46;103284;1253;97801;-74
2023/02/03 06:20:51;;;;;;;10.70;6.40;;;;;;;-1.41;86.28;100331.50;103243;1254;107968;-75
2023/02/03 06:23:19;;;;;;;9.10;6.00;;;;;;;-1.37;86.37;100327.80;103138;1254;142174;-75
2023/02/03 06:25:47;;;;;;;12.40;6.00;;;;;;;-1.37;86.12;100320.31;103293;1257;112208;-73
2023/02/03 06:28:14;;;;;;;10.00;6.30;;;;;;;-1.36;86.05;100320.31;102402;1257;1003018;-72
2023/02/03 06:30:41;;;;;;;12.70;6.60;;;;;;;-1.35;86.15;100315.39;103305;1257;98466;-73
2023/02/03 06:33:08;;;;;;;14.30;6.40;;;;;;;-1.33;85.86;100314.90;103259;1257;107219;-72
2023/02/03 06:35:35;;;;;;;13.20;6.60;;;;;;;-1.32;85.96;100314.23;103232;1254;97690;-76
2023/02/03 06:38:03;;;;;;;15.30;7.20;;;;;;;-1.31;85.78;100304.52;103272;1253;112189;-75
2023/02/03 06:40:30;;;;;;;12.90;7.60;;;;;;;-1.30;85.81;100301.13;103131;1257;139524;-75
2023/02/03 06:42:57;;;;;;;12.90;7.00;;;;;;;-1.27;85.83;100298.45;103360;1253;98308;-74
2023/02/03 06:45:24;;;;;;;15.20;7.10;;;;;;;-1.27;85.63;100299.15;103228;1256;138650;-74
2023/02/03 06:47:51;;;;;;;13.60;7.00;;;;;;;-1.26;85.56;100296.42;102497;1256;1002990;-74
2023/02/03 06:50:18;;;;;;;11.20;6.40;;;;;;;-1.24;85.41;100292.55;102582;1253;1016124;-74
2023/02/03 06:53:02;;;;;;;15.90;6.60;;;;;;;-1.22;85.47;100285.58;103527;1253;140493;-72
2023/02/03 06:55:28;;;;;;;12.40;7.20;;;;;;;-1.18;85.42;100284.63;103270;1254;97797;-75
2023/02/03 06:57:56;;;;;;;13.00;7.20;;;;;;;-1.13;85.14;100276.33;103385;1253;138470;-72
2023/02/03 07:00:24;;;;;;;15.20;7.80;;;;;;;-1.05;85.17;100266.73;102690;1253;1003732;-72
2023/02/03 07:02:56;;;;;;;18.30;8.80;;;;;;;-0.92;85.16;100263.33;103232;1254;110268;-74
2023/02/03 07:05:26;;;;;;;16.40;8.00;;;;;;;-0.78;84.95;100260.46;102372;1257;1002566;-73
2023/02/03 07:07:54;;;;;;;17.60;8.90;;;;;;;-0.65;84.66;100256.55;103308;1254;98422;-70
2023/02/03 07:10:21;;;;;;;14.80;8.80;;;;;;;-0.51;84.52;100253.48;102422;1254;1003439;-72
2023/02/03 07:12:50;;;;;;;19.30;8.60;;;;;;;-0.39;83.89;100250.04;103360;1257;97829;-69
2023/02/03 07:15:18;;;;;;;18.30;9.10;;;;;;;-0.29;83.79;100241.96;103164;1253;138856;-69
2023/02/03 07:17:53;;;;;;;14.10;8.30;;;;;;;-0.04;84.03;100233.17;103321;1253;107416;-70
2023/02/03 07:20:22;;;;;;;17.70;9.00;;;;;;;0.25;83.32;100230.20;102557;1253;1003019;-69
2023/02/03 07:22:55;;;;;;;11.90;8.10;;;;;;;0.60;83.31;100221.11;103101;1254;138993;-69
2023/02/03 07:25:23;;;;;;;15.00;8.60;;;;;;;0.98;82.43;100218.11;103188;1259;98077;-69
2023/02/03 07:27:51;;;;;;;17.90;8.10;;;;;;;1.15;81.30;100218.73;103130;1256;138351;-68
2023/02/03 07:30:19;;;;;;;16.50;8.60;;;;;;;1.15;80.47;100220.79;103254;1257;107704;-68
2023/02/03 07:32:49;;;;;;;14.40;7.90;;;;;;;1.24;80.20;100218.77;103132;1255;99478;-68
2023/02/03 07:35:17;;;;;;;16.10;8.20;;;;;;;1.48;79.58;100216.14;103084;1254;139084;-69
2023/02/03 07:37:45;;;;;;;13.60;7.70;;;;;;;1.75;78.53;100215.04;103202;1254;97681;-68
2023/02/03 07:40:13;;;;;;;17.60;8.00;;;;;;;1.86;77.57;100212.34;103017;1257;138380;-68
2023/02/03 07:42:43;;;;;;;12.90;7.70;;;;;;;1.99;77.89;100203.28;103217;1254;106752;-68
2023/02/03 07:45:12;;;;;;;14.50;7.10;;;;;;;2.21;76.99;100198.69;103117;1254;140391;-70
2023/02/03 07:47:39;;;;;;;15.10;8.40;;;;;;;2.41;77.64;100190.45;103716;1254;107674;-70
2023/02/03 07:50:07;;;;;;;11.30;7.10;;;;;;;2.63;77.03;100189.58;103146;1254;100741;-69
2023/02/03 07:52:34;;;;;;;8.30;6.30;;;;;;;2.73;76.01;100178.24;103130;1254;138344;-69
2023/02/03 07:55:01;;;;;;;10.20;5.80;;;;;;;2.78;76.21;100172.40;103297;1253;105977;-68
2023/02/03 07:57:28;;;;;;;11.00;5.80;;;;;;;2.75;74.86;100170.35;103162;1253;138573;-69
2023/02/03 07:59:56;;;;;;;10.30;6.10;;;;;;;2.63;73.98;100164.69;103307;1253;107656;-69
2023/02/03 08:02:23;;;;;;;12.00;6.30;;;;;;;2.50;74.42;100156.98;103211;1257;97791;-68
2023/02/03 08:04:50;;;;;;;11.50;5.60;;;;;;;2.51;75.40;100153.39;102464;1253;1003695;-68
2023/02/03 08:07:17;;;;;;;11.10;5.80;;;;;;;2.53;74.76;100152.88;103290;1253;108080;-70
2023/02/03 08:09:44;;;;;;;13.30;6.30;;;;;;;2.59;74.84;100152.34;103292;1253;138503;-69
2023/02/03 08:12:12;;;;;;;11.80;6.00;;;;;;;2.73;74.37;100150.09;103238;1257;107042;-69
2023/02/03 08:14:39;;;;;;;15.00;6.30;;;;;;;2.83;74.00;100143.36;103249;1253;97862;-70
2023/02/03 08:17:06;;;;;;;11.00;5.80;;;;;;;2.85;73.68;100140.42;102406;1253;1002772;-70
2023/02/03 08:19:33;;;;;;;9.10;5.20;;;;;;;2.89;73.38;100139.23;103293;1253;107657;-69
2023/02/03 08:22:00;;;;;;;9.00;5.30;;;;;;;2.93;72.89;100135.62;102463;1253;1002552;-72
2023/02/03 08:24:28;;;;;;;10.60;5.50;;;;;;;2.91;72.79;100131.67;103308;1253;108080;-69
2023/02/03 08:26:55;;;;;;;10.30;5.20;;;;;;;2.89;72.34;100130.14;103306;1253;97806;-70
2023/02/03 08:29:22;;;;;;;11.00;6.10;;;;;;;2.94;72.10;100126.52;103182;1257;139283;-69
2023/02/03 08:31:49;;;;;;;11.40;5.90;;;;;;;3.06;72.21;100129.39;103296;1253;107431;-69
2023/02/03 08:34:16;;;;;;;11.50;5.50;;;;;;;3.16;72.03;100127.29;103183;1253;139590;-69
2023/02/03 08:36:45;;;;;;;10.50;5.40;;;;;;;3.18;71.51;100119.38;103226;1254;106487;-69
2023/02/03 08:39:12;;;;;;;9.80;5.00;;;;;;;3.14;70.95;100116.30;103209;1252;138911;-69
2023/02/03 08:41:39;;;;;;;10.40;5.10;;;;;;;3.15;71.26;100108.22;103332;1253;112603;-69
2023/02/03 08:44:06;;;;;;;8.40;5.00;;;;;;;3.25;71.15;100095.81;103262;1253;107820;-68
2023/02/03 08:46:35;;;;;;;10.80;5.20;;;;;;;3.38;70.88;100091.27;102415;1257;1003753;-71
2023/02/03 08:49:02;;;;;;;9.40;5.10;;;;;;;3.55;69.80;100090.48;103214;1254;107219;-70
2023/02/03 08:51:30;;;;;;;8.20;4.90;;;;;;;3.62;69.55;100084.44;103111;1254;138424;-68
2023/02/03 08:53:57;;;;;;;10.50;5.20;;;;;;;3.61;68.94;100085.64;103200;1254;111998;-69
2023/02/03 08:56:26;;;;;;;10.30;5.10;;;;;;;3.64;68.70;100086.30;103149;1257;107422;-71
2023/02/03 08:58:53;;;;;;;11.80;4.80;;;;;;;3.55;68.27;100081.02;103124;1254;140297;-68
2023/02/03 09:01:22;;;;;;;8.20;4.40;;;;;;;3.45;68.43;100074.22;103272;1254;107739;-70
2023/02/03 09:03:49;;;;;;;8.60;4.60;;;;;;;3.32;68.14;100067.42;102359;1254;1003205;-69
2023/02/03 09:06:17;;;;;;;9.80;4.50;;;;;;;3.27;68.83;100063.85;103268;1257;110659;-69
2023/02/03 09:08:48;;;;;;;7.10;4.20;;;;;;;3.19;67.93;100060.77;103257;1257;106872;-70
2023/02/03 09:11:16;;;;;;;10.30;5.30;;;;;;;3.12;67.98;100055.34;103157;1254;139682;-68
2023/02/03 09:13:44;;;;;;;8.40;4.50;;;;;;;3.10;67.89;100048.13;103240;1254;107188;-70
2023/02/03 09:16:12;;;;;;;12.20;5.00;;;;;;;3.13;67.98;100047.42;103172;1254;138168;-69
2023/02/03 09:18:39;;;;;;;10.50;4.70;;;;;;;3.19;67.92;100044.11;103351;1257;111451;-69
2023/02/03 09:21:07;;;;;;;7.90;3.90;;;;;;;3.22;67.85;100046.51;103274;1258;107445;-69
2023/02/03 09:23:35;;;;;;;7.70;3.70;;;;;;;3.14;67.23;100035.38;103348;1257;97793;-69
2023/02/03 09:26:04;;;;;;;8.40;4.10;;;;;;;3.11;67.09;100034.89;103289;1256;106942;-70
2023/02/03 09:28:32;;;;;;;7.80;4.20;;;;;;;3.13;66.51;100030.08;103160;1254;139657;-69
2023/02/03 09:31:02;;;;;;;6.30;3.80;;;;;;;3.10;66.84;100017.56;103238;1257;111996;-69
2023/02/03 09:33:29;;;;;;;8.40;4.00;;;;;;;3.10;66.02;100015.66;103091;1256;137656;-69
2023/02/03 09:35:57;;;;;;;7.00;3.90;;;;;;;2.88;65.37;100009.92;103260;1253;97819;-68
2023/02/03 09:38:25;;;;;;;10.20;4.10;;;;;;;2.76;66.64;100000.72;103267;1256;108610;-69
2023/02/03 09:40:55;;;;;;;6.80;4.10;;;;;;;2.65;65.91;100002.30;103153;1254;139559;-70
2023/02/03 09:43:41;;;;;;;7.40;3.70;;;;;;;2.50;65.32;99996.86;103315;1254;109939;-70
2023/02/03 09:46:12;;;;;;;6.40;3.60;;;;;;;2.44;65.57;99984.19;103181;1256;137284;-72
2023/02/03 09:48:46;;;;;;;8.90;3.30;;;;;;;2.43;65.54;99980.42;103250;1254;97789;-71
2023/02/03 09:51:22;;;;;;;6.30;3.80;;;;;;;2.44;65.57;99979.20;103127;1256;139252;-71
2023/02/03 09:53:57;;;;;;;6.90;2.90;;;;;;;2.46;65.38;99966.50;102577;1257;1003519;-68
2023/02/03 09:56:31;;;;;;;6.50;3.30;;;;;;;2.51;65.57;99954.98;103256;1256;112433;-69
2023/02/03 09:59:00;;;;;;;6.00;2.90;;;;;;;2.56;65.69;99952.58;103116;1254;140257;-70
2023/02/03 10:01:34;;;;;;;7.90;3.30;;;;;;;2.55;65.50;99946.91;103277;1257;98093;-69
2023/02/03 10:04:06;;;;;;;6.40;3.30;;;;;;;2.61;65.35;99936.23;103148;1255;137390;-70
2023/02/03 10:06:36;;;;;;;3.80;2.70;;;;;;;2.62;65.16;99927.30;103271;1257;97912;-70
2023/02/03 10:09:18;;;;;;;7.00;2.80;;;;;;;2.64;65.48;99921.80;102468;1254;1002726;-69
2023/02/03 10:12:06;;;;;;;5.10;2.90;;;;;;;2.67;65.14;99909.77;103320;1257;106637;-72
2023/02/03 10:14:46;;;;;;;6.50;3.20;;;;;;;2.78;64.56;99910.23;102514;1255;1003656;-71
2023/02/03 10:17:30;;;;;;;6.80;2.80;;;;;;;2.86;62.52;99918.92;103150;1254;137405;-73
2023/02/03 10:20:03;;;;;;;5.70;2.90;;;;;;;2.87;60.94;99899.19;103232;1257;97669;-69
2023/02/03 10:22:34;;;;;;;5.80;2.60;;;;;;;2.92;63.02;99896.40;103197;1255;138223;-68
2023/02/03 10:25:06;;;;;;;6.00;3.20;;;;;;;3.01;63.25;99890.31;103260;1254;106687;-71
2023/02/03 10:27:35;;;;;;;6.40;2.80;;;;;;;3.06;62.55;99881.53;103071;1258;137452;-70
2023/02/03 10:30:06;;;;;;;6.50;2.60;;;;;;;3.16;63.43;99862.55;103250;1256;107759;-68
2023/02/03 10:32:36;;;;;;;4.40;2.80;;;;;;;3.24;62.03;99853.91;103225;1258;97790;-69
2023/02/03 10:35:05;;;;;;;5.90;2.90;;;;;;;3.22;61.92;99851.16;103271;1252;137350;-69
2023/02/03 10:37:41;;;;;;;5.90;2.90;;;;;;;3.10;61.86;99849.73;103236;1254;107879;-71
2023/02/03 10:40:14;;;;;;;9.40;3.30;;;;;;;2.93;62.51;99844.87;103400;1255;137301;-74
2023/02/03 10:45:29;;;;;;;4.80;2.50;;;;;;;2.60;62.43;99830.34;103186;1256;137901;-72
2023/02/03 10:47:57;;;;;;;6.20;3.00;;;;;;;2.50;61.30;99831.61;103279;1257;110219;-69
2023/02/03 10:50:30;;;;;;;6.50;2.80;;;;;;;2.45;61.69;99824.27;103225;1254;107882;-72
2023/02/03 10:53:23;;;;;;;4.50;2.30;;;;;;;2.43;61.77;99821.69;102836;1254;1002534;-75
2023/02/03 10:56:05;;;;;;;4.10;2.30;;;;;;;2.34;61.29;99806.48;103239;1254;107573;-75
2023/02/03 10:58:34;;;;;;;5.50;2.60;;;;;;;2.19;61.42;99799.20;103097;1258;139181;-71
2023/02/03 11:01:09;;;;;;;4.60;2.60;;;;;;;2.00;61.26;99790.19;102433;1254;1002637;-72
2023/02/03 11:03:38;;;;;;;5.70;2.60;;;;;;;1.79;62.17;99783.94;104538;1254;137938;-77
2023/02/03 11:06:11;;;;;;;5.40;3.00;;;;;;;1.61;62.56;99772.02;103333;1256;98301;-76
2023/02/03 11:08:42;;;;;;;5.20;3.00;;;;;;;1.46;62.99;99764.70;103224;1258;107606;-76
2023/02/03 11:11:13;;;;;;;5.10;3.00;;;;;;;1.34;63.80;99748.64;103200;1257;138381;-71
2023/02/03 11:13:41;;;;;;;5.10;2.70;;;;;;;1.22;63.79;99737.02;103230;1257;111385;-71
2023/02/03 11:16:14;;;;;;;6.20;3.10;;;;;;;1.14;64.48;99719.06;103157;1254;139211;-70
2023/02/03 11:18:46;;;;;;;6.10;3.20;;;;;;;1.05;64.70;99713.24;103402;1259;97905;-72
2023/02/03 11:21:17;;;;;;;6.70;3.90;;;;;;;0.98;65.25;99702.84;103117;1257;138365;-71
2023/02/03 11:23:53;;;;;;;6.10;3.10;;;;;;;0.91;65.75;99695.33;103132;1256;98541;-72
2023/02/03 11:26:26;;;;;;;6.50;3.50;;;;;;;0.84;65.74;99693.27;102494;1258;1002554;-73